Time;durP1;ratioP1;P1;durP2;ratioP2;P2;SDS_P1;SDS_P2;PMS_P1;PMS_P2;Temp;Humidity;BMP_temperature;BMP_pressure;BME280_temperature;BME280_humidity;BME280_pressure;Samples;Min_cycle;Max_cycle;Signal;HPM_P1;HPM_P2
2023/03/21 00:01:05;;;;;;;3.60;3.30;;;8.70;96.40;;;;;;5097277;28;20276;-81
2023/03/21 00:03:33;;;;;;;3.43;3.13;;;8.80;96.40;;;;;;5075597;28;20546;-82
2023/03/21 00:06:04;;;;;;;3.10;2.90;;;8.80;96.30;;;;;;5092947;28;20171;-82
2023/03/21 00:08:30;;;;;;;3.73;3.43;;;8.90;96.40;;;;;;5094108;28;20179;-84
2023/03/21 00:10:58;;;;;;;2.97;2.77;;;8.90;96.30;;;;;;5095462;28;20684;-83
2023/03/21 00:13:25;;;;;;;2.90;2.70;;;8.90;96.20;;;;;;5095682;28;20175;-74
2023/03/21 00:15:53;;;;;;;3.10;2.90;;;8.90;96.20;;;;;;5098339;28;20282;-79
2023/03/21 00:18:21;;;;;;;3.10;2.90;;;8.90;96.30;;;;;;5095101;28;20171;-80
2023/03/21 00:20:58;;;;;;;2.87;2.67;;;8.90;96.20;;;;;;5094842;28;20174;-75
2023/03/21 00:23:26;;;;;;;3.53;3.27;;;9.00;96.20;;;;;;5094083;28;20171;-83
2023/03/21 00:25:52;;;;;;;2.77;2.53;;;9.10;96.10;;;;;;5093727;28;20177;-73
2023/03/21 00:28:18;;;;;;;3.17;2.97;;;9.20;96.10;;;;;;5093690;28;20254;-80
2023/03/21 00:30:44;;;;;;;3.10;2.73;;;9.30;96.00;;;;;;5093145;28;20254;-73
2023/03/21 00:33:11;;;;;;;2.90;2.70;;;9.30;96.20;;;;;;5092614;28;20609;-75
2023/03/21 00:35:38;;;;;;;3.87;2.87;;;9.30;96.00;;;;;;5094628;28;20229;-78
2023/03/21 00:38:04;;;;;;;3.43;2.60;;;9.40;95.90;;;;;;5096805;28;20190;-75
2023/03/21 00:40:30;;;;;;;2.63;2.43;;;9.40;95.90;;;;;;5083317;28;20185;-75
2023/03/21 00:42:56;;;;;;;3.13;2.93;;;9.40;95.80;;;;;;5099700;28;20188;-76
2023/03/21 00:45:21;;;;;;;3.10;2.90;;;9.40;95.70;;;;;;5093681;28;20222;-74
2023/03/21 00:47:47;;;;;;;3.03;2.60;;;9.40;95.80;;;;;;5093099;28;20174;-83
2023/03/21 00:50:13;;;;;;;2.40;2.30;;;9.50;95.60;;;;;;5092994;28;20529;-84
2023/03/21 00:52:39;;;;;;;4.00;2.73;;;9.50;96.00;;;;;;5095803;28;20171;-82
2023/03/21 00:55:06;;;;;;;2.63;2.43;;;9.60;95.50;;;;;;5094615;28;20592;-82
2023/03/21 00:57:32;;;;;;;3.30;2.47;;;9.60;95.70;;;;;;5094754;28;20244;-78
2023/03/21 00:59:57;;;;;;;2.63;2.43;;;9.60;95.70;;;;;;5094225;28;20634;-81
2023/03/21 01:02:25;;;;;;;2.83;2.63;;;9.60;95.60;;;;;;5075124;28;20180;-81
2023/03/21 01:04:54;;;;;;;2.63;2.43;;;9.60;95.60;;;;;;5093344;28;20170;-80
2023/03/21 01:07:20;;;;;;;2.73;2.53;;;9.60;95.60;;;;;;5093406;28;20554;-83
2023/03/21 01:09:46;;;;;;;3.17;2.87;;;9.50;95.60;;;;;;5093918;28;20167;-72
2023/03/21 01:12:12;;;;;;;2.40;2.30;;;9.50;95.70;;;;;;5093744;28;20185;-75
2023/03/21 01:14:37;;;;;;;2.87;2.67;;;9.50;95.60;;;;;;5094077;28;20207;-75
2023/03/21 01:17:04;;;;;;;2.73;2.53;;;9.50;95.60;;;;;;5093770;28;20179;-82
2023/03/21 01:19:30;;;;;;;3.40;3.10;;;9.50;95.60;;;;;;5093528;28;20336;-79
2023/03/21 01:21:56;;;;;;;2.67;2.57;;;9.50;95.60;;;;;;5093732;28;20167;-81
2023/03/21 01:24:22;;;;;;;2.73;2.53;;;9.50;95.60;;;;;;5093274;28;20205;-80
2023/03/21 01:26:48;;;;;;;2.80;2.60;;;9.50;95.60;;;;;;5092827;28;20253;-83
2023/03/21 01:29:13;;;;;;;3.23;2.13;;;9.60;95.60;;;;;;5093173;28;20178;-83
2023/03/21 01:31:39;;;;;;;2.90;2.70;;;9.50;95.50;;;;;;5092558;28;20188;-83
2023/03/21 01:34:05;;;;;;;3.03;2.83;;;9.60;95.60;;;;;;5092471;28;20195;-83
2023/03/21 01:36:31;;;;;;;2.37;2.17;;;9.60;95.60;;;;;;5092580;28;20183;-84
2023/03/21 01:38:57;;;;;;;2.87;2.67;;;9.60;95.70;;;;;;5092711;28;20208;-82
2023/03/21 01:41:23;;;;;;;2.67;2.23;;;9.60;95.70;;;;;;5074488;28;20710;-82
2023/03/21 01:43:49;;;;;;;2.67;2.43;;;9.70;95.60;;;;;;5074504;28;20706;-77
2023/03/21 01:46:27;;;;;;;2.23;2.13;;;9.70;95.60;;;;;;5074988;28;20373;-82
2023/03/21 01:48:59;;;;;;;2.60;2.40;;;9.70;95.60;;;;;;5076445;28;20529;-84
2023/03/21 01:51:27;;;;;;;4.43;2.50;;;9.70;95.50;;;;;;5093850;28;20173;-82
2023/03/21 01:53:54;;;;;;;2.70;2.50;;;9.70;95.60;;;;;;5093542;28;20162;-79
2023/03/21 01:56:20;;;;;;;2.70;2.50;;;9.70;95.70;;;;;;5098247;28;20297;-78
2023/03/21 01:58:46;;;;;;;2.63;2.43;;;9.70;95.70;;;;;;5106477;28;20181;-77
2023/03/21 02:01:14;;;;;;;3.93;3.57;;;9.70;95.80;;;;;;5079013;28;20181;-76
2023/03/21 02:03:49;;;;;;;3.93;3.63;;;9.60;95.90;;;;;;5074354;28;20222;-75
2023/03/21 02:06:33;;;;;;;5.23;4.40;;;9.70;96.00;;;;;;5092267;28;20167;-77
2023/03/21 02:09:03;;;;;;;4.40;3.67;;;9.60;96.10;;;;;;5074081;28;20537;-76
2023/03/21 02:11:31;;;;;;;6.57;5.13;;;9.60;96.40;;;;;;5091737;28;20155;-76
2023/03/21 02:13:57;;;;;;;5.23;4.20;;;9.50;96.40;;;;;;5093394;28;20261;-74
2023/03/21 02:16:38;;;;;;;6.50;5.67;;;9.40;96.40;;;;;;5106014;28;20179;-74
2023/03/21 02:19:22;;;;;;;5.33;4.83;;;9.40;96.70;;;;;;5093875;28;20623;-78
2023/03/21 02:22:02;;;;;;;5.47;4.97;;;9.30;96.70;;;;;;5092518;28;20163;-82
2023/03/21 02:24:49;;;;;;;6.50;5.43;;;9.20;96.80;;;;;;5092673;28;20165;-82
2023/03/21 02:27:20;;;;;;;8.07;5.53;;;9.20;96.90;;;;;;5092456;28;20626;-81
2023/03/21 02:29:58;;;;;;;9.13;5.47;;;9.30;97.00;;;;;;5100137;28;20175;-76
2023/03/21 02:32:32;;;;;;;6.87;4.93;;;9.10;97.10;;;;;;5094507;28;20167;-77
2023/03/21 02:35:19;;;;;;;6.87;5.23;;;9.10;97.10;;;;;;5092418;28;20205;-80
2023/03/21 02:38:00;;;;;;;5.40;4.90;;;9.00;97.20;;;;;;5074067;28;20244;-83
2023/03/21 02:40:38;;;;;;;7.77;5.60;;;8.90;97.40;;;;;;5075651;28;20171;-78
2023/03/21 02:43:09;;;;;;;6.17;5.37;;;8.80;97.60;;;;;;5101873;28;20160;-84
2023/03/21 02:45:44;;;;;;;5.40;4.87;;;8.80;97.40;;;;;;5093038;28;20221;-81
2023/03/21 02:48:18;;;;;;;8.00;5.40;;;8.70;97.60;;;;;;5096071;28;20552;-79
2023/03/21 02:50:51;;;;;;;6.10;5.47;;;8.70;97.80;;;;;;5095686;28;20169;-83
2023/03/21 02:53:21;;;;;;;5.40;4.90;;;8.70;97.80;;;;;;5095922;28;20159;-74
2023/03/21 02:55:48;;;;;;;5.80;5.23;;;8.70;97.80;;;;;;5095660;28;20550;-75
2023/03/21 02:58:20;;;;;;;5.80;5.30;;;8.60;98.00;;;;;;5096142;28;20265;-82
2023/03/21 03:00:47;;;;;;;5.67;5.13;;;8.50;98.00;;;;;;5095652;28;20175;-84
2023/03/21 03:03:13;;;;;;;6.10;5.50;;;8.50;98.00;;;;;;5095741;28;20182;-83
2023/03/21 03:05:53;;;;;;;6.60;4.80;;;8.60;98.00;;;;;;5095518;28;20171;-84
2023/03/21 03:08:19;;;;;;;7.60;5.27;;;8.50;98.10;;;;;;5095790;28;20184;-82
2023/03/21 03:11:04;;;;;;;6.73;5.37;;;8.40;98.10;;;;;;5095932;28;20198;-83
2023/03/21 03:13:53;;;;;;;5.80;5.20;;;8.40;98.20;;;;;;5077573;28;20246;-84
2023/03/21 03:16:37;;;;;;;6.00;5.10;;;8.40;98.20;;;;;;5095386;28;20199;-83
2023/03/21 03:19:08;;;;;;;6.13;5.53;;;8.30;98.40;;;;;;5095438;28;20173;-83
2023/03/21 03:21:46;;;;;;;5.67;5.17;;;8.30;98.40;;;;;;5095293;28;20160;-83
2023/03/21 03:24:35;;;;;;;6.33;5.30;;;8.30;98.40;;;;;;5095542;28;20162;-83
2023/03/21 03:27:11;;;;;;;7.83;5.10;;;8.30;98.50;;;;;;5095057;28;20499;-82
2023/03/21 03:29:40;;;;;;;5.33;4.83;;;8.30;98.50;;;;;;5077150;28;20170;-82
2023/03/21 03:32:23;;;;;;;5.47;5.07;;;8.30;98.60;;;;;;5094862;28;20660;-84
2023/03/21 03:34:57;;;;;;;4.07;3.73;;;8.30;98.70;;;;;;5095085;28;20191;-84
2023/03/21 03:37:27;;;;;;;5.43;4.90;;;8.20;98.70;;;;;;5076929;28;20170;-84
2023/03/21 03:40:17;;;;;;;3.60;3.30;;;8.20;98.70;;;;;;5080050;28;20249;-79
2023/03/21 03:42:52;;;;;;;3.10;2.90;;;8.20;98.80;;;;;;5036868;28;20251;-77
2023/03/21 03:45:20;;;;;;;4.50;4.10;;;8.10;98.60;;;;;;5074797;28;20327;-74
2023/03/21 03:48:01;;;;;;;6.47;4.33;;;8.10;98.70;;;;;;5075158;28;20225;-73
2023/03/21 03:50:38;;;;;;;5.37;4.67;;;8.20;98.80;;;;;;5081661;28;20178;-76
2023/03/21 03:53:26;;;;;;;2.83;2.63;;;8.20;98.70;;;;;;5083212;28;20151;-82
2023/03/21 03:55:55;;;;;;;2.37;2.17;;;8.20;98.50;;;;;;5073929;28;20227;-83
2023/03/21 03:58:23;;;;;;;4.10;2.80;;;8.20;98.30;;;;;;5074585;28;20184;-82
2023/03/21 04:00:50;;;;;;;2.83;2.63;;;8.30;98.40;;;;;;5076279;28;20163;-81
2023/03/21 04:03:15;;;;;;;3.00;2.80;;;8.20;98.40;;;;;;5063726;28;20574;-82
2023/03/21 04:05:45;;;;;;;2.30;2.20;;;8.20;98.30;;;;;;5074664;28;20177;-78
2023/03/21 04:08:14;;;;;;;2.17;1.97;;;8.20;98.30;;;;;;5074299;28;20188;-78
2023/03/21 04:10:41;;;;;;;2.17;2.07;;;8.20;98.30;;;;;;5074085;28;20187;-74
2023/03/21 04:13:07;;;;;;;2.30;2.20;;;8.20;98.40;;;;;;5074919;28;20191;-76
2023/03/21 04:15:34;;;;;;;2.07;1.97;;;8.20;98.20;;;;;;5074050;28;20563;-79
2023/03/21 04:18:00;;;;;;;2.90;2.60;;;8.20;98.20;;;;;;5074177;28;20175;-82
2023/03/21 04:20:25;;;;;;;3.07;2.20;;;8.20;98.20;;;;;;5077949;28;20242;-82
2023/03/21 04:22:53;;;;;;;3.13;2.33;;;8.10;98.20;;;;;;5084021;28;20182;-82
2023/03/21 04:25:19;;;;;;;2.27;2.17;;;8.10;98.20;;;;;;5075203;28;20166;-82
2023/03/21 04:27:47;;;;;;;2.40;2.20;;;8.00;98.30;;;;;;5055861;28;20193;-77
2023/03/21 04:30:13;;;;;;;2.10;2.00;;;8.00;98.40;;;;;;5074062;28;20184;-75
2023/03/21 04:32:39;;;;;;;2.50;2.30;;;8.00;98.40;;;;;;5075157;28;20248;-78
2023/03/21 04:35:10;;;;;;;2.30;2.20;;;8.00;98.40;;;;;;5055967;28;20649;-78
2023/03/21 04:37:37;;;;;;;2.60;2.10;;;8.00;98.50;;;;;;5073813;28;20179;-75
2023/03/21 04:40:06;;;;;;;2.60;2.43;;;8.00;98.40;;;;;;5073370;28;20186;-76
2023/03/21 04:42:32;;;;;;;2.33;1.70;;;7.90;98.50;;;;;;5055402;28;20187;-80
2023/03/21 04:44:58;;;;;;;2.33;2.20;;;7.90;98.50;;;;;;5072890;28;20226;-74
2023/03/21 04:47:24;;;;;;;4.60;2.30;;;8.00;98.40;;;;;;5072826;28;20764;-81
2023/03/21 04:49:50;;;;;;;2.97;2.70;;;7.90;98.30;;;;;;5073104;28;20183;-75
2023/03/21 04:52:16;;;;;;;3.30;2.50;;;7.90;98.50;;;;;;5073049;28;20167;-78
2023/03/21 04:54:42;;;;;;;4.33;3.97;;;7.80;98.70;;;;;;5072722;28;20206;-76
2023/03/21 04:57:08;;;;;;;6.43;4.37;;;7.80;98.80;;;;;;5072812;28;20174;-78
2023/03/21 04:59:34;;;;;;;2.77;2.57;;;7.80;99.00;;;;;;5055001;28;20312;-76
2023/03/21 05:02:00;;;;;;;4.83;4.20;;;7.80;98.80;;;;;;5072604;28;20194;-82
2023/03/21 05:04:26;;;;;;;4.67;4.03;;;7.70;99.10;;;;;;5072596;28;20627;-76
2023/03/21 05:06:53;;;;;;;4.13;3.73;;;7.70;99.10;;;;;;5072422;28;20177;-77
2023/03/21 05:09:20;;;;;;;4.27;3.43;;;7.80;99.10;;;;;;5071977;28;20533;-80
2023/03/21 05:11:47;;;;;;;4.30;3.90;;;7.80;99.30;;;;;;5072636;28;20182;-76
2023/03/21 05:14:19;;;;;;;5.23;3.60;;;7.70;99.20;;;;;;5072385;28;20207;-76
2023/03/21 05:16:53;;;;;;;4.93;3.80;;;7.70;99.30;;;;;;5072305;28;20254;-74
2023/03/21 05:19:39;;;;;;;4.20;3.60;;;7.80;99.30;;;;;;5072891;28;20253;-76
2023/03/21 05:22:07;;;;;;;4.77;3.23;;;7.80;99.30;;;;;;5073309;28;20163;-75
2023/03/21 05:24:33;;;;;;;5.30;3.83;;;7.90;99.20;;;;;;5080982;28;20171;-76
2023/03/21 05:27:01;;;;;;;6.40;4.13;;;7.90;99.00;;;;;;5082820;28;20181;-82
2023/03/21 05:29:29;;;;;;;3.70;3.33;;;7.90;99.10;;;;;;5077893;28;20174;-81
2023/03/21 05:31:55;;;;;;;3.57;3.27;;;7.80;99.20;;;;;;5075150;28;20170;-82
2023/03/21 05:34:21;;;;;;;5.40;3.20;;;7.70;99.40;;;;;;5073682;28;20524;-80
2023/03/21 05:36:47;;;;;;;5.20;2.97;;;7.70;99.40;;;;;;5073445;28;20256;-82
2023/03/21 05:39:13;;;;;;;4.00;3.20;;;7.70;99.30;;;;;;5055177;28;20309;-80
2023/03/21 05:41:39;;;;;;;6.83;3.67;;;7.70;99.30;;;;;;5055583;28;20188;-81
2023/03/21 05:44:05;;;;;;;3.17;2.87;;;7.70;99.30;;;;;;5058128;28;20175;-79
2023/03/21 05:46:31;;;;;;;3.03;2.83;;;7.70;99.20;;;;;;5073188;28;20623;-76
2023/03/21 05:48:56;;;;;;;2.43;2.33;;;7.70;99.10;;;;;;5072838;28;20178;-75
2023/03/21 05:51:22;;;;;;;2.63;2.43;;;7.70;99.00;;;;;;5054352;28;20186;-79
2023/03/21 05:53:48;;;;;;;2.70;2.50;;;7.70;98.80;;;;;;5072186;28;20180;-80
2023/03/21 05:56:14;;;;;;;2.73;2.57;;;7.60;98.80;;;;;;5072432;28;20225;-81
2023/03/21 05:58:40;;;;;;;2.93;2.70;;;7.50;98.90;;;;;;5073221;28;20218;-82
2023/03/21 06:01:06;;;;;;;2.70;2.50;;;7.50;98.90;;;;;;5073401;28;20548;-80
2023/03/21 06:03:32;;;;;;;2.80;2.60;;;7.50;98.80;;;;;;5073956;28;20171;-82
2023/03/21 06:05:58;;;;;;;2.93;2.73;;;7.50;98.80;;;;;;5075077;28;20177;-83
2023/03/21 06:08:23;;;;;;;2.67;2.47;;;7.70;98.80;;;;;;5076460;28;20691;-81
2023/03/21 06:10:49;;;;;;;4.03;2.37;;;7.70;98.70;;;;;;5073120;28;20185;-80
2023/03/21 06:13:15;;;;;;;2.50;2.33;;;7.70;98.70;;;;;;5059843;28;20220;-83
2023/03/21 06:15:41;;;;;;;2.33;2.23;;;7.70;98.60;;;;;;5074336;28;20220;-77
2023/03/21 06:18:06;;;;;;;3.13;2.33;;;7.80;98.60;;;;;;5073690;28;20175;-76
2023/03/21 06:20:32;;;;;;;3.87;2.37;;;7.90;98.50;;;;;;5077905;28;20174;-82
2023/03/21 06:22:58;;;;;;;2.80;2.20;;;7.90;98.60;;;;;;5061577;28;20184;-79
2023/03/21 06:25:24;;;;;;;3.17;2.87;;;8.00;98.60;;;;;;5058666;28;20177;-80
2023/03/21 06:27:50;;;;;;;4.83;2.70;;;8.10;98.40;;;;;;5076589;28;20163;-80
2023/03/21 06:30:16;;;;;;;2.67;2.47;;;8.20;98.20;;;;;;5075860;28;20178;-78
2023/03/21 06:32:42;;;;;;;3.07;2.80;;;8.30;98.00;;;;;;5076235;28;20185;-80
2023/03/21 06:35:08;;;;;;;2.77;2.57;;;8.40;98.20;;;;;;5057615;28;20206;-81
2023/03/21 06:37:34;;;;;;;4.13;2.67;;;8.50;97.90;;;;;;5076095;28;20250;-80
2023/03/21 06:40:00;;;;;;;2.70;2.50;;;8.50;97.90;;;;;;5075686;28;20736;-79
2023/03/21 06:42:25;;;;;;;2.93;2.60;;;8.70;97.60;;;;;;5076112;28;20198;-78
2023/03/21 06:44:51;;;;;;;2.70;2.50;;;8.80;97.50;;;;;;5075584;28;20736;-80
2023/03/21 06:47:17;;;;;;;3.27;2.30;;;9.00;97.20;;;;;;5075915;28;20579;-79
2023/03/21 06:49:43;;;;;;;2.60;2.40;;;9.00;97.20;;;;;;5075670;28;20180;-80
2023/03/21 06:52:10;;;;;;;2.63;2.43;;;9.10;97.20;;;;;;5075759;28;20170;-81
2023/03/21 06:54:36;;;;;;;2.73;2.50;;;9.20;96.90;;;;;;5075665;28;20202;-80
2023/03/21 06:57:02;;;;;;;2.40;2.20;;;9.30;96.80;;;;;;5076508;28;20181;-78
2023/03/21 06:59:27;;;;;;;2.60;2.40;;;9.30;96.50;;;;;;5067537;28;20191;-79
2023/03/21 07:01:53;;;;;;;2.20;2.10;;;9.40;96.50;;;;;;5092639;28;20178;-78
2023/03/21 07:04:19;;;;;;;2.30;2.20;;;9.40;96.50;;;;;;5081057;28;20630;-81
2023/03/21 07:06:45;;;;;;;5.00;2.10;;;9.60;96.40;;;;;;5076578;28;20223;-82
2023/03/21 07:09:11;;;;;;;3.87;3.50;;;9.60;96.40;;;;;;5057843;28;20609;-79
2023/03/21 07:11:37;;;;;;;7.73;4.13;;;9.70;96.50;;;;;;5075695;28;20173;-78
2023/03/21 07:14:03;;;;;;;5.47;4.33;;;9.70;96.60;;;;;;5075868;28;20199;-78
2023/03/21 07:16:29;;;;;;;7.13;5.07;;;9.80;96.90;;;;;;5077219;28;20193;-80
2023/03/21 07:18:55;;;;;;;7.23;5.47;;;9.90;97.00;;;;;;5076681;28;20172;-81
2023/03/21 07:21:21;;;;;;;8.97;6.00;;;9.90;97.00;;;;;;5057464;28;20624;-80
2023/03/21 07:23:49;;;;;;;10.43;5.73;;;10.10;96.40;;;;;;5075177;28;20171;-77
2023/03/21 07:26:17;;;;;;;6.53;5.57;;;10.10;96.70;;;;;;5074723;28;20165;-82
2023/03/21 07:28:43;;;;;;;8.77;5.47;;;10.10;96.30;;;;;;5075386;28;20190;-82
2023/03/21 07:31:13;;;;;;;10.37;5.63;;;10.20;96.30;;;;;;5056283;28;20220;-80
2023/03/21 07:33:39;;;;;;;8.40;5.77;;;10.30;96.30;;;;;;5057878;28;20199;-81
2023/03/21 07:36:14;;;;;;;8.37;5.33;;;10.30;96.30;;;;;;5056901;28;20205;-80
2023/03/21 07:38:40;;;;;;;6.60;5.27;;;10.40;96.70;;;;;;5075564;28;20626;-82
2023/03/21 07:41:06;;;;;;;5.67;5.17;;;10.40;96.80;;;;;;5075267;28;20177;-82
2023/03/21 07:43:32;;;;;;;7.67;6.23;;;10.40;96.70;;;;;;5075437;28;20181;-80
2023/03/21 07:45:58;;;;;;;9.47;6.47;;;10.50;96.60;;;;;;5075038;28;20233;-76
2023/03/21 07:48:24;;;;;;;8.63;6.30;;;10.50;96.40;;;;;;5057299;28;20609;-81
2023/03/21 07:50:50;;;;;;;6.40;5.80;;;10.60;96.30;;;;;;5075152;28;20198;-80
2023/03/21 07:53:16;;;;;;;6.57;5.77;;;10.70;96.20;;;;;;5074938;28;20636;-77
2023/03/21 07:55:42;;;;;;;13.70;5.93;;;10.90;96.00;;;;;;5074701;28;20782;-79
2023/03/21 07:58:07;;;;;;;11.70;5.53;;;11.00;95.80;;;;;;5075559;28;20168;-79
2023/03/21 08:00:33;;;;;;;10.73;5.50;;;11.10;95.60;;;;;;5057661;28;20189;-77
2023/03/21 08:03:00;;;;;;;6.87;5.17;;;11.20;95.70;;;;;;5057816;28;20508;-81
2023/03/21 08:05:34;;;;;;;14.40;5.67;;;11.30;95.60;;;;;;5075965;28;20716;-78
2023/03/21 08:08:00;;;;;;;5.97;4.53;;;11.50;95.00;;;;;;5078787;28;20180;-78
2023/03/21 08:10:26;;;;;;;5.60;4.97;;;11.60;94.70;;;;;;5058399;28;20182;-81
2023/03/21 08:12:52;;;;;;;4.67;4.23;;;11.70;94.40;;;;;;5065722;28;20186;-76
2023/03/21 08:15:18;;;;;;;8.27;5.20;;;11.80;94.40;;;;;;5076318;28;20254;-74
2023/03/21 08:17:44;;;;;;;6.97;5.63;;;11.90;94.30;;;;;;5074342;28;20167;-77
2023/03/21 08:20:16;;;;;;;7.23;5.07;;;11.90;94.30;;;;;;5073994;28;20198;-77
2023/03/21 08:22:43;;;;;;;9.33;4.13;;;12.10;94.10;;;;;;5073811;28;20171;-75
2023/03/21 08:25:12;;;;;;;3.77;3.30;;;12.30;93.10;;;;;;5073500;28;20182;-77
2023/03/21 08:27:39;;;;;;;6.13;3.30;;;12.40;92.70;;;;;;5073737;28;20169;-76
2023/03/21 08:30:06;;;;;;;5.13;3.77;;;12.50;92.60;;;;;;5055868;28;20183;-76
2023/03/21 08:32:32;;;;;;;3.73;3.17;;;12.50;92.60;;;;;;5074147;28;20167;-75
2023/03/21 08:35:01;;;;;;;3.77;2.80;;;12.60;92.80;;;;;;5081425;28;20214;-76
2023/03/21 08:37:27;;;;;;;2.87;2.67;;;12.50;92.70;;;;;;5088597;28;20182;-79
2023/03/21 08:39:53;;;;;;;3.20;2.90;;;12.60;92.60;;;;;;5057157;28;20182;-78
2023/03/21 08:42:21;;;;;;;3.33;2.80;;;12.80;92.30;;;;;;5073898;28;20175;-76
2023/03/21 08:44:48;;;;;;;2.60;2.40;;;12.80;92.20;;;;;;5068918;28;20579;-80
2023/03/21 08:47:14;;;;;;;2.47;2.27;;;12.90;92.30;;;;;;5094312;28;20174;-76
2023/03/21 08:49:41;;;;;;;3.37;3.17;;;13.00;91.80;;;;;;5095296;28;20266;-81
2023/03/21 08:52:07;;;;;;;4.80;3.27;;;13.10;91.60;;;;;;5093798;28;20170;-76
2023/03/21 08:54:33;;;;;;;3.00;2.60;;;13.20;91.40;;;;;;5094053;28;20688;-79
2023/03/21 08:56:59;;;;;;;2.23;2.10;;;13.20;90.80;;;;;;5093852;28;20175;-82
2023/03/21 08:59:25;;;;;;;2.60;2.47;;;13.20;90.40;;;;;;5094151;28;20205;-82
2023/03/21 09:01:51;;;;;;;3.80;2.70;;;13.20;90.40;;;;;;5094329;28;20257;-81
2023/03/21 09:04:17;;;;;;;2.87;2.67;;;13.40;91.00;;;;;;5094103;28;20665;-82
2023/03/21 09:06:47;;;;;;;2.70;2.50;;;13.50;91.30;;;;;;5093872;28;20162;-82
2023/03/21 09:09:14;;;;;;;2.20;2.03;;;13.60;91.20;;;;;;5093903;28;20157;-83
2023/03/21 09:11:40;;;;;;;2.63;1.90;;;13.80;90.20;;;;;;5093682;28;20202;-77
2023/03/21 09:14:06;;;;;;;1.87;1.77;;;14.00;89.00;;;;;;5093419;28;20694;-76
2023/03/21 09:16:32;;;;;;;3.50;1.90;;;14.20;88.70;;;;;;5093429;28;20214;-76
2023/03/21 09:18:58;;;;;;;2.00;1.90;;;14.40;88.30;;;;;;5092930;28;20194;-79
2023/03/21 09:21:26;;;;;;;2.03;1.80;;;14.40;88.50;;;;;;5093339;28;20167;-80
2023/03/21 09:23:55;;;;;;;2.40;2.20;;;14.50;88.30;;;;;;5093190;28;20172;-83
2023/03/21 09:26:22;;;;;;;2.37;2.17;;;14.50;89.30;;;;;;5092013;28;20182;-81
2023/03/21 09:28:48;;;;;;;2.60;1.83;;;14.60;88.80;;;;;;5093596;28;20164;-80
2023/03/21 09:31:20;;;;;;;2.90;1.80;;;14.70;88.90;;;;;;5093722;28;20221;-80
2023/03/21 09:33:46;;;;;;;5.50;1.90;;;14.90;88.00;;;;;;5094718;28;20165;-80
2023/03/21 09:36:15;;;;;;;1.83;1.73;;;15.10;86.80;;;;;;5091983;28;20229;-81
2023/03/21 09:38:44;;;;;;;2.03;1.70;;;15.40;86.60;;;;;;5092519;28;20207;-81
2023/03/21 09:41:31;;;;;;;1.60;1.50;;;15.70;85.10;;;;;;5093661;28;20339;-83
2023/03/21 09:44:12;;;;;;;1.77;1.40;;;15.70;84.60;;;;;;5092309;28;20215;-77
2023/03/21 09:46:46;;;;;;;1.40;1.40;;;15.80;84.30;;;;;;5073196;28;20205;-81
2023/03/21 09:49:20;;;;;;;1.30;1.30;;;15.80;83.00;;;;;;5072926;28;20671;-79
2023/03/21 09:51:52;;;;;;;1.93;1.20;;;15.60;82.80;;;;;;5072988;28;20687;-80
2023/03/21 09:54:29;;;;;;;1.33;1.23;;;15.40;83.30;;;;;;5072728;28;20208;-79
2023/03/21 09:56:59;;;;;;;1.60;1.50;;;15.30;83.00;;;;;;5072867;28;20194;-82
2023/03/21 09:59:36;;;;;;;1.80;1.20;;;15.20;82.70;;;;;;5072881;28;20160;-79
2023/03/21 10:02:19;;;;;;;1.30;1.20;;;15.50;82.00;;;;;;5075622;28;20160;-80
2023/03/21 10:04:45;;;;;;;1.30;1.30;;;15.40;82.10;;;;;;5074017;28;20163;-80
2023/03/21 10:07:17;;;;;;;1.40;1.40;;;15.30;82.20;;;;;;5073887;28;20175;-77
2023/03/21 10:09:46;;;;;;;1.10;1.10;;;15.20;82.20;;;;;;5075502;28;20211;-80
2023/03/21 10:12:20;;;;;;;1.67;1.33;;;15.30;82.30;;;;;;5062951;28;20246;-75
2023/03/21 10:14:53;;;;;;;1.20;1.20;;;15.30;82.30;;;;;;5088379;28;20173;-77
2023/03/21 10:17:32;;;;;;;1.37;1.37;;;15.30;82.30;;;;;;5077591;28;20246;-80
2023/03/21 10:20:14;;;;;;;1.13;1.07;;;15.30;82.20;;;;;;5079325;28;20186;-80
2023/03/21 10:22:42;;;;;;;0.93;0.93;;;15.40;82.70;;;;;;5075558;28;20387;-79
2023/03/21 10:25:15;;;;;;;1.20;1.20;;;15.60;81.60;;;;;;5055384;28;20232;-81
2023/03/21 10:27:41;;;;;;;2.97;1.10;;;15.80;81.40;;;;;;5073349;28;20723;-82
2023/03/21 10:30:14;;;;;;;1.13;1.10;;;15.90;81.70;;;;;;5073290;28;20163;-82
2023/03/21 10:32:40;;;;;;;1.20;1.20;;;16.20;80.80;;;;;;5073874;28;20227;-83
2023/03/21 10:35:08;;;;;;;1.67;1.20;;;16.40;81.70;;;;;;5073071;28;20203;-81
2023/03/21 10:37:35;;;;;;;1.57;1.43;;;16.60;80.20;;;;;;5073678;28;20619;-76
2023/03/21 10:40:01;;;;;;;2.13;1.40;;;16.70;80.20;;;;;;5072898;28;20516;-79
2023/03/21 10:42:31;;;;;;;1.90;1.67;;;16.90;79.70;;;;;;5073339;28;20178;-79
2023/03/21 10:44:58;;;;;;;1.80;1.70;;;17.10;79.70;;;;;;5070514;28;20236;-80
2023/03/21 10:47:29;;;;;;;1.37;1.20;;;17.20;78.70;;;;;;5091328;28;20189;-81
2023/03/21 10:49:54;;;;;;;3.23;1.10;;;17.10;78.60;;;;;;5092761;28;20163;-77
2023/03/21 10:52:26;;;;;;;1.40;1.30;;;17.20;78.30;;;;;;5092787;28;20185;-77
2023/03/21 10:55:27;;;;;;;1.03;1.00;;;17.30;78.80;;;;;;5092394;28;20198;-81
2023/03/21 10:58:01;;;;;;;2.53;1.47;;;17.40;77.70;;;;;;5084999;28;20235;-81
2023/03/21 11:00:32;;;;;;;1.00;1.00;;;17.40;77.40;;;;;;5092613;28;20694;-82
2023/03/21 11:02:59;;;;;;;2.00;1.30;;;17.30;77.60;;;;;;5092795;28;20169;-79
2023/03/21 11:05:34;;;;;;;1.10;1.10;;;17.30;77.10;;;;;;5092164;28;20946;-75
2023/03/21 11:08:17;;;;;;;0.97;0.97;;;17.20;76.80;;;;;;5095264;28;20197;-77
2023/03/21 11:10:51;;;;;;;0.70;0.70;;;17.30;75.50;;;;;;5095951;28;20155;-75
2023/03/21 11:13:25;;;;;;;0.70;0.70;;;17.50;76.30;;;;;;5095637;28;20180;-79
2023/03/21 11:15:57;;;;;;;0.90;0.90;;;17.60;76.00;;;;;;5095899;28;20214;-78
2023/03/21 11:18:25;;;;;;;0.83;0.63;;;17.70;75.20;;;;;;5096097;28;20166;-78
2023/03/21 11:21:06;;;;;;;3.83;1.00;;;17.70;74.10;;;;;;5094572;28;20174;-76
2023/03/21 11:23:34;;;;;;;0.93;0.93;;;17.70;75.60;;;;;;5096686;28;20224;-81
2023/03/21 11:26:02;;;;;;;1.30;0.83;;;17.70;75.10;;;;;;5096250;28;20174;-78
2023/03/21 11:28:41;;;;;;;0.87;0.87;;;17.60;74.10;;;;;;5095849;28;20201;-77
2023/03/21 11:31:10;;;;;;;0.93;0.93;;;17.40;74.50;;;;;;5095937;28;20166;-79
2023/03/21 11:33:53;;;;;;;1.00;1.00;;;17.60;75.70;;;;;;5094334;28;20177;-80
2023/03/21 11:36:18;;;;;;;0.80;0.80;;;17.60;75.20;;;;;;5094349;28;20203;-83
2023/03/21 11:38:52;;;;;;;1.40;0.87;;;17.60;73.60;;;;;;5095520;28;20177;-77
2023/03/21 11:41:24;;;;;;;1.23;1.23;;;17.50;74.80;;;;;;5095583;28;20165;-75
2023/03/21 11:43:52;;;;;;;1.27;1.27;;;17.50;75.10;;;;;;5096167;28;20177;-80
2023/03/21 11:46:26;;;;;;;1.17;1.07;;;17.40;74.50;;;;;;5076228;28;20199;-76
2023/03/21 11:48:53;;;;;;;1.30;1.20;;;17.20;75.50;;;;;;5082968;28;20198;-78
2023/03/21 11:51:25;;;;;;;0.93;0.90;;;17.20;76.30;;;;;;5087143;28;20171;-81
2023/03/21 11:54:15;;;;;;;1.23;1.00;;;17.40;75.30;;;;;;5078807;28;20171;-81
2023/03/21 11:57:19;;;;;;;0.93;0.90;;;17.60;75.30;;;;;;5065941;28;20191;-79
2023/03/21 11:59:59;;;;;;;4.83;1.30;;;17.80;74.10;;;;;;5076838;28;20650;-77
2023/03/21 12:03:03;;;;;;;1.60;1.10;;;17.90;75.00;;;;;;5077085;28;20190;-77
2023/03/21 12:05:35;;;;;;;1.37;1.27;;;17.90;75.00;;;;;;5074901;28;20559;-75
2023/03/21 12:08:28;;;;;;;1.10;1.10;;;17.90;75.10;;;;;;5075376;28;20186;-76
2023/03/21 12:11:09;;;;;;;2.33;1.27;;;18.00;74.90;;;;;;5066589;28;20236;-76
2023/03/21 12:14:14;;;;;;;1.20;1.10;;;18.00;75.40;;;;;;5075873;28;20513;-78
2023/03/21 12:16:58;;;;;;;1.60;1.13;;;18.00;75.50;;;;;;5074457;28;20172;-77
2023/03/21 12:19:51;;;;;;;1.30;1.17;;;18.00;75.30;;;;;;5075107;28;20160;-81
2023/03/21 12:22:31;;;;;;;0.90;0.90;;;18.10;74.90;;;;;;5075241;28;20159;-75
2023/03/21 12:25:08;;;;;;;0.70;0.70;;;18.20;74.60;;;;;;5061690;28;20582;-76
2023/03/21 12:27:59;;;;;;;1.03;0.90;;;18.10;73.80;;;;;;5078018;28;20155;-83
2023/03/21 12:30:48;;;;;;;0.80;0.80;;;18.20;73.10;;;;;;5074717;28;20620;-81
2023/03/21 12:33:34;;;;;;;4.17;1.10;;;18.30;72.60;;;;;;5074633;28;20679;-84
2023/03/21 12:36:06;;;;;;;1.00;1.00;;;18.40;72.00;;;;;;5074030;28;20203;-80
2023/03/21 12:38:40;;;;;;;0.93;0.93;;;18.50;72.40;;;;;;5074087;28;20175;-83
2023/03/21 12:41:26;;;;;;;1.23;1.23;;;18.50;72.60;;;;;;5074577;28;20159;-82
2023/03/21 12:44:02;;;;;;;1.17;1.00;;;18.60;72.90;;;;;;5073906;28;20162;-81
2023/03/21 12:47:01;;;;;;;1.23;1.17;;;18.70;73.60;;;;;;5074019;28;20191;-81
2023/03/21 12:49:50;;;;;;;1.37;1.27;;;18.90;73.80;;;;;;4992406;28;20925;-82
2023/03/21 12:52:36;;;;;;;1.43;1.10;;;19.10;72.40;;;;;;4992824;28;20186;-82
2023/03/21 12:55:20;;;;;;;1.23;0.97;;;19.30;72.20;;;;;;4991955;28;20221;-78
2023/03/21 12:58:24;;;;;;;1.50;1.40;;;19.40;71.50;;;;;;4991971;28;20173;-79
2023/03/21 13:00:56;;;;;;;2.03;1.93;;;19.40;71.50;;;;;;4991561;28;20225;-76
2023/03/21 13:03:44;;;;;;;1.50;1.40;;;19.30;70.70;;;;;;4991891;28;20178;-82
2023/03/21 13:06:13;;;;;;;1.40;1.40;;;19.20;72.00;;;;;;4991776;28;20186;-83
2023/03/21 13:08:59;;;;;;;1.43;1.10;;;19.00;71.70;;;;;;4991918;28;20633;-83
2023/03/21 13:11:28;;;;;;;1.93;1.00;;;18.90;71.70;;;;;;4991495;28;20208;-82